sensor_id;sensor_type;location;lat;lon;timestamp;temperature;humidity
12811;DHT22;6470;47.654;7.896;2023-03-03T00:01:27;4.10;99.90
12811;DHT22;6470;47.654;7.896;2023-03-03T00:03:53;3.70;99.90
12811;DHT22;6470;47.654;7.896;2023-03-03T00:06:19;4.00;99.90
12811;DHT22;6470;47.654;7.896;2023-03-03T00:08:45;3.30;99.90
12811;DHT22;6470;47.654;7.896;2023-03-03T00:11:11;3.60;99.90
12811;DHT22;6470;47.654;7.896;2023-03-03T00:13:44;3.00;99.90
12811;DHT22;6470;47.654;7.896;2023-03-03T00:18:42;2.70;99.90
12811;DHT22;6470;47.654;7.896;2023-03-03T00:23:47;3.40;99.90
12811;DHT22;6470;47.654;7.896;2023-03-03T00:26:45;3.70;99.90
12811;DHT22;6470;47.654;7.896;2023-03-03T00:29:29;2.70;99.90
12811;DHT22;6470;47.654;7.896;2023-03-03T00:34:41;3.60;99.90
12811;DHT22;6470;47.654;7.896;2023-03-03T00:37:33;3.30;99.90
12811;DHT22;6470;47.654;7.896;2023-03-03T00:42:41;2.70;99.90
12811;DHT22;6470;47.654;7.896;2023-03-03T00:45:42;3.30;99.90
12811;DHT22;6470;47.654;7.896;2023-03-03T00:50:47;3.70;99.90
12811;DHT22;6470;47.654;7.896;2023-03-03T00:53:15;2.90;99.90
12811;DHT22;6470;47.654;7.896;2023-03-03T00:55:45;3.50;99.90
12811;DHT22;6470;47.654;7.896;2023-03-03T00:58:12;2.60;99.90
12811;DHT22;6470;47.654;7.896;2023-03-03T01:00:38;3.10;99.90
12811;DHT22;6470;47.654;7.896;2023-03-03T01:03:08;3.40;99.90
12811;DHT22;6470;47.654;7.896;2023-03-03T01:05:35;2.90;99.90
12811;DHT22;6470;47.654;7.896;2023-03-03T01:08:02;0.50;99.90
12811;DHT22;6470;47.654;7.896;2023-03-03T01:10:30;3.00;99.90
12811;DHT22;6470;47.654;7.896;2023-03-03T01:12:56;2.90;99.90
12811;DHT22;6470;47.654;7.896;2023-03-03T01:15:23;2.40;99.90
12811;DHT22;6470;47.654;7.896;2023-03-03T01:17:49;3.30;99.90
12811;DHT22;6470;47.654;7.896;2023-03-03T01:20:16;2.60;99.90
12811;DHT22;6470;47.654;7.896;2023-03-03T01:22:42;3.50;99.90
12811;DHT22;6470;47.654;7.896;2023-03-03T01:27:34;3.60;99.90
12811;DHT22;6470;47.654;7.896;2023-03-03T01:30:01;3.30;99.90
12811;DHT22;6470;47.654;7.896;2023-03-03T01:32:27;2.70;99.90
12811;DHT22;6470;47.654;7.896;2023-03-03T01:34:53;2.90;99.90
12811;DHT22;6470;47.654;7.896;2023-03-03T01:37:20;3.20;99.90
12811;DHT22;6470;47.654;7.896;2023-03-03T01:39:52;3.30;99.90
12811;DHT22;6470;47.654;7.896;2023-03-03T01:42:19;0.60;99.90
12811;DHT22;6470;47.654;7.896;2023-03-03T01:44:46;2.80;99.90
12811;DHT22;6470;47.654;7.896;2023-03-03T01:47:27;3.20;99.90
12811;DHT22;6470;47.654;7.896;2023-03-03T01:50:01;2.80;99.90
12811;DHT22;6470;47.654;7.896;2023-03-03T01:52:40;3.30;99.90
12811;DHT22;6470;47.654;7.896;2023-03-03T01:55:29;3.20;99.90
12811;DHT22;6470;47.654;7.896;2023-03-03T02:00:38;2.90;99.90
12811;DHT22;6470;47.654;7.896;2023-03-03T02:03:05;-0.10;99.90
12811;DHT22;6470;47.654;7.896;2023-03-03T02:05:31;2.50;99.90
12811;DHT22;6470;47.654;7.896;2023-03-03T02:07:58;2.90;99.90
12811;DHT22;6470;47.654;7.896;2023-03-03T02:10:24;2.50;99.90
12811;DHT22;6470;47.654;7.896;2023-03-03T02:12:51;3.20;99.90
12811;DHT22;6470;47.654;7.896;2023-03-03T02:15:23;2.60;99.90
12811;DHT22;6470;47.654;7.896;2023-03-03T02:17:52;2.40;99.90
12811;DHT22;6470;47.654;7.896;2023-03-03T02:26:09;2.80;99.90
12811;DHT22;6470;47.654;7.896;2023-03-03T02:28:38;0.20;99.90
12811;DHT22;6470;47.654;7.896;2023-03-03T02:31:07;3.10;99.90
12811;DHT22;6470;47.654;7.896;2023-03-03T02:33:35;3.40;99.90
12811;DHT22;6470;47.654;7.896;2023-03-03T02:36:01;2.90;99.90
12811;DHT22;6470;47.654;7.896;2023-03-03T02:38:41;2.70;99.90
12811;DHT22;6470;47.654;7.896;2023-03-03T02:44:05;3.00;99.90
12811;DHT22;6470;47.654;7.896;2023-03-03T02:46:39;3.00;99.90
12811;DHT22;6470;47.654;7.896;2023-03-03T02:49:08;3.10;99.90
12811;DHT22;6470;47.654;7.896;2023-03-03T02:54:01;3.10;99.90
12811;DHT22;6470;47.654;7.896;2023-03-03T02:56:26;2.80;99.90
12811;DHT22;6470;47.654;7.896;2023-03-03T02:58:52;2.20;99.90
12811;DHT22;6470;47.654;7.896;2023-03-03T03:01:18;3.20;99.90
12811;DHT22;6470;47.654;7.896;2023-03-03T03:03:44;2.30;99.90
12811;DHT22;6470;47.654;7.896;2023-03-03T03:06:09;3.10;99.90
12811;DHT22;6470;47.654;7.896;2023-03-03T03:11:02;2.70;99.90
12811;DHT22;6470;47.654;7.896;2023-03-03T03:13:28;0.20;99.90
12811;DHT22;6470;47.654;7.896;2023-03-03T03:15:54;2.60;99.90
12811;DHT22;6470;47.654;7.896;2023-03-03T03:18:20;2.90;99.90
12811;DHT22;6470;47.654;7.896;2023-03-03T03:20:46;2.50;99.90
12811;DHT22;6470;47.654;7.896;2023-03-03T03:25:38;3.00;99.90
12811;DHT22;6470;47.654;7.896;2023-03-03T03:28:10;3.20;99.90
12811;DHT22;6470;47.654;7.896;2023-03-03T03:30:37;2.60;99.90
12811;DHT22;6470;47.654;7.896;2023-03-03T03:33:03;3.00;99.90
12811;DHT22;6470;47.654;7.896;2023-03-03T03:35:29;2.50;99.90
12811;DHT22;6470;47.654;7.896;2023-03-03T03:37:54;0.30;99.90
12811;DHT22;6470;47.654;7.896;2023-03-03T03:40:20;2.70;99.90
12811;DHT22;6470;47.654;7.896;2023-03-03T03:42:46;2.70;99.90
12811;DHT22;6470;47.654;7.896;2023-03-03T03:45:12;2.60;99.90
12811;DHT22;6470;47.654;7.896;2023-03-03T03:47:41;0.20;99.90
12811;DHT22;6470;47.654;7.896;2023-03-03T03:50:07;2.90;99.90
12811;DHT22;6470;47.654;7.896;2023-03-03T03:52:34;2.80;99.90
12811;DHT22;6470;47.654;7.896;2023-03-03T03:54:59;2.80;99.90
12811;DHT22;6470;47.654;7.896;2023-03-03T03:57:25;2.30;99.90
12811;DHT22;6470;47.654;7.896;2023-03-03T04:02:17;3.10;99.90
12811;DHT22;6470;47.654;7.896;2023-03-03T04:07:09;2.60;99.90
12811;DHT22;6470;47.654;7.896;2023-03-03T04:12:01;3.20;99.90
12811;DHT22;6470;47.654;7.896;2023-03-03T04:16:52;3.30;99.90
12811;DHT22;6470;47.654;7.896;2023-03-03T04:19:18;2.80;99.90
12811;DHT22;6470;47.654;7.896;2023-03-03T04:21:44;2.20;99.90
12811;DHT22;6470;47.654;7.896;2023-03-03T04:24:10;3.00;99.90
12811;DHT22;6470;47.654;7.896;2023-03-03T04:26:36;2.10;99.90
12811;DHT22;6470;47.654;7.896;2023-03-03T04:29:02;2.30;99.90
12811;DHT22;6470;47.654;7.896;2023-03-03T04:31:27;3.10;99.90
12811;DHT22;6470;47.654;7.896;2023-03-03T04:33:53;2.80;99.90
12811;DHT22;6470;47.654;7.896;2023-03-03T04:36:19;2.80;99.90
12811;DHT22;6470;47.654;7.896;2023-03-03T04:38:46;-0.10;99.90
12811;DHT22;6470;47.654;7.896;2023-03-03T04:41:11;3.20;99.90
12811;DHT22;6470;47.654;7.896;2023-03-03T04:43:37;2.90;99.90
12811;DHT22;6470;47.654;7.896;2023-03-03T04:46:03;2.70;99.90
12811;DHT22;6470;47.654;7.896;2023-03-03T04:48:29;2.50;99.90
12811;DHT22;6470;47.654;7.896;2023-03-03T04:53:20;2.90;99.90
12811;DHT22;6470;47.654;7.896;2023-03-03T04:55:49;3.30;99.90
12811;DHT22;6470;47.654;7.896;2023-03-03T04:58:15;3.10;99.90
12811;DHT22;6470;47.654;7.896;2023-03-03T05:00:41;1.80;99.90
12811;DHT22;6470;47.654;7.896;2023-03-03T05:03:07;2.90;99.90
12811;DHT22;6470;47.654;7.896;2023-03-03T05:05:34;0.20;99.90
12811;DHT22;6470;47.654;7.896;2023-03-03T05:08:00;3.00;99.90
12811;DHT22;6470;47.654;7.896;2023-03-03T05:10:26;2.90;99.90
12811;DHT22;6470;47.654;7.896;2023-03-03T05:12:51;3.00;99.90
12811;DHT22;6470;47.654;7.896;2023-03-03T05:15:17;2.50;99.90
12811;DHT22;6470;47.654;7.896;2023-03-03T05:17:43;3.00;99.90
12811;DHT22;6470;47.654;7.896;2023-03-03T05:20:10;2.80;99.90
12811;DHT22;6470;47.654;7.896;2023-03-03T05:22:36;2.80;99.90
12811;DHT22;6470;47.654;7.896;2023-03-03T05:25:02;2.70;99.90
12811;DHT22;6470;47.654;7.896;2023-03-03T05:27:27;2.50;99.90
12811;DHT22;6470;47.654;7.896;2023-03-03T05:29:53;2.70;99.90
12811;DHT22;6470;47.654;7.896;2023-03-03T05:32:19;2.80;99.90
12811;DHT22;6470;47.654;7.896;2023-03-03T05:34:44;-0.10;99.90
12811;DHT22;6470;47.654;7.896;2023-03-03T05:37:10;2.70;99.90
12811;DHT22;6470;47.654;7.896;2023-03-03T05:39:36;2.70;99.90
12811;DHT22;6470;47.654;7.896;2023-03-03T05:42:02;0.10;99.90
12811;DHT22;6470;47.654;7.896;2023-03-03T05:46:54;2.80;99.90
12811;DHT22;6470;47.654;7.896;2023-03-03T05:49:22;0.00;99.90
12811;DHT22;6470;47.654;7.896;2023-03-03T05:51:47;3.10;99.90
12811;DHT22;6470;47.654;7.896;2023-03-03T05:54:13;2.60;99.90
12811;DHT22;6470;47.654;7.896;2023-03-03T05:56:39;2.70;99.90
12811;DHT22;6470;47.654;7.896;2023-03-03T05:59:04;2.10;99.90
12811;DHT22;6470;47.654;7.896;2023-03-03T06:03:57;2.60;99.90
12811;DHT22;6470;47.654;7.896;2023-03-03T06:06:22;2.80;99.90
12811;DHT22;6470;47.654;7.896;2023-03-03T06:08:48;2.40;99.90
12811;DHT22;6470;47.654;7.896;2023-03-03T06:13:41;3.20;99.90
12811;DHT22;6470;47.654;7.896;2023-03-03T06:16:07;3.00;99.90
12811;DHT22;6470;47.654;7.896;2023-03-03T06:18:33;2.40;99.90
12811;DHT22;6470;47.654;7.896;2023-03-03T06:20:58;2.70;99.90
12811;DHT22;6470;47.654;7.896;2023-03-03T06:23:24;2.80;99.90
12811;DHT22;6470;47.654;7.896;2023-03-03T06:28:16;0.10;99.90
12811;DHT22;6470;47.654;7.896;2023-03-03T06:30:41;2.70;99.90
12811;DHT22;6470;47.654;7.896;2023-03-03T06:33:07;2.70;99.90
12811;DHT22;6470;47.654;7.896;2023-03-03T06:37:59;2.60;99.90
12811;DHT22;6470;47.654;7.896;2023-03-03T06:40:24;3.10;99.90
12811;DHT22;6470;47.654;7.896;2023-03-03T06:42:50;3.00;99.90
12811;DHT22;6470;47.654;7.896;2023-03-03T06:45:16;2.80;99.90
12811;DHT22;6470;47.654;7.896;2023-03-03T06:47:42;2.70;99.90
12811;DHT22;6470;47.654;7.896;2023-03-03T06:50:10;0.30;99.90
12811;DHT22;6470;47.654;7.896;2023-03-03T06:55:20;3.30;99.90
12811;DHT22;6470;47.654;7.896;2023-03-03T06:57:47;3.20;99.90
12811;DHT22;6470;47.654;7.896;2023-03-03T07:00:23;2.30;99.90
12811;DHT22;6470;47.654;7.896;2023-03-03T07:03:03;2.00;99.90
12811;DHT22;6470;47.654;7.896;2023-03-03T07:05:30;2.80;99.90
12811;DHT22;6470;47.654;7.896;2023-03-03T07:07:57;2.80;99.90
12811;DHT22;6470;47.654;7.896;2023-03-03T07:10:26;2.70;99.90
12811;DHT22;6470;47.654;7.896;2023-03-03T07:12:52;3.10;99.90
12811;DHT22;6470;47.654;7.896;2023-03-03T07:15:23;2.90;99.90
12811;DHT22;6470;47.654;7.896;2023-03-03T07:17:54;2.70;99.90
12811;DHT22;6470;47.654;7.896;2023-03-03T07:20:35;2.90;99.90
12811;DHT22;6470;47.654;7.896;2023-03-03T07:23:25;3.20;99.90
12811;DHT22;6470;47.654;7.896;2023-03-03T07:25:51;2.80;99.90
12811;DHT22;6470;47.654;7.896;2023-03-03T07:28:26;3.90;99.90
12811;DHT22;6470;47.654;7.896;2023-03-03T07:30:52;3.10;99.90
12811;DHT22;6470;47.654;7.896;2023-03-03T07:33:28;0.80;99.90
12811;DHT22;6470;47.654;7.896;2023-03-03T07:35:58;3.30;99.90
12811;DHT22;6470;47.654;7.896;2023-03-03T07:38:34;3.50;99.90
12811;DHT22;6470;47.654;7.896;2023-03-03T07:41:04;3.50;99.90
12811;DHT22;6470;47.654;7.896;2023-03-03T07:43:40;2.90;99.90
12811;DHT22;6470;47.654;7.896;2023-03-03T07:46:16;4.30;99.90
12811;DHT22;6470;47.654;7.896;2023-03-03T07:48:44;3.80;99.90
12811;DHT22;6470;47.654;7.896;2023-03-03T07:57:22;4.10;99.90
12811;DHT22;6470;47.654;7.896;2023-03-03T08:03:02;5.00;99.90
12811;DHT22;6470;47.654;7.896;2023-03-03T08:10:59;4.60;99.90
12811;DHT22;6470;47.654;7.896;2023-03-03T08:20:59;4.80;99.90
12811;DHT22;6470;47.654;7.896;2023-03-03T08:25:52;5.30;99.90
12811;DHT22;6470;47.654;7.896;2023-03-03T08:28:19;5.30;99.90
12811;DHT22;6470;47.654;7.896;2023-03-03T08:33:11;5.40;99.90
12811;DHT22;6470;47.654;7.896;2023-03-03T08:38:04;5.80;99.90
12811;DHT22;6470;47.654;7.896;2023-03-03T08:42:56;5.80;99.90
12811;DHT22;6470;47.654;7.896;2023-03-03T08:45:23;5.70;99.90
12811;DHT22;6470;47.654;7.896;2023-03-03T08:47:49;3.10;99.90
12811;DHT22;6470;47.654;7.896;2023-03-03T08:50:16;5.40;99.90
12811;DHT22;6470;47.654;7.896;2023-03-03T08:52:42;6.00;99.90
12811;DHT22;6470;47.654;7.896;2023-03-03T08:55:09;5.30;99.90
12811;DHT22;6470;47.654;7.896;2023-03-03T08:57:35;4.50;99.90
12811;DHT22;6470;47.654;7.896;2023-03-03T09:00:00;5.00;99.90
12811;DHT22;6470;47.654;7.896;2023-03-03T09:02:26;3.10;99.90
12811;DHT22;6470;47.654;7.896;2023-03-03T09:04:52;5.60;99.90
12811;DHT22;6470;47.654;7.896;2023-03-03T09:07:17;6.20;99.90
12811;DHT22;6470;47.654;7.896;2023-03-03T09:09:43;6.00;99.90
12811;DHT22;6470;47.654;7.896;2023-03-03T09:12:23;6.50;99.90
12811;DHT22;6470;47.654;7.896;2023-03-03T09:17:24;6.60;99.90
12811;DHT22;6470;47.654;7.896;2023-03-03T09:19:51;6.80;99.90
12811;DHT22;6470;47.654;7.896;2023-03-03T09:22:22;6.90;99.90
12811;DHT22;6470;47.654;7.896;2023-03-03T09:24:51;7.30;99.90
12811;DHT22;6470;47.654;7.896;2023-03-03T09:27:34;7.40;99.90
12811;DHT22;6470;47.654;7.896;2023-03-03T09:32:47;7.30;99.90
12811;DHT22;6470;47.654;7.896;2023-03-03T09:35:36;7.90;99.90
12811;DHT22;6470;47.654;7.896;2023-03-03T09:38:20;6.70;99.90
12811;DHT22;6470;47.654;7.896;2023-03-03T09:48:49;7.70;99.90
12811;DHT22;6470;47.654;7.896;2023-03-03T09:51:26;7.70;99.90
12811;DHT22;6470;47.654;7.896;2023-03-03T09:54:08;7.30;99.90
12811;DHT22;6470;47.654;7.896;2023-03-03T09:56:48;7.90;99.90
12811;DHT22;6470;47.654;7.896;2023-03-03T09:59:38;8.20;99.90
12811;DHT22;6470;47.654;7.896;2023-03-03T10:21:38;5.30;99.90
12811;DHT22;6470;47.654;7.896;2023-03-03T10:32:28;7.90;99.90
12811;DHT22;6470;47.654;7.896;2023-03-03T10:46:31;8.60;99.90
12811;DHT22;6470;47.654;7.896;2023-03-03T11:06:33;8.50;99.90
12811;DHT22;6470;47.654;7.896;2023-03-03T11:25:50;8.70;99.90
12811;DHT22;6470;47.654;7.896;2023-03-03T11:34:41;9.60;99.90
12811;DHT22;6470;47.654;7.896;2023-03-03T11:39:52;9.50;99.90
12811;DHT22;6470;47.654;7.896;2023-03-03T11:42:46;9.50;99.90
12811;DHT22;6470;47.654;7.896;2023-03-03T11:45:16;9.40;99.90
12811;DHT22;6470;47.654;7.896;2023-03-03T11:47:58;9.60;99.90
12811;DHT22;6470;47.654;7.896;2023-03-03T11:50:34;9.60;99.90
12811;DHT22;6470;47.654;7.896;2023-03-03T11:53:31;10.00;99.90
12811;DHT22;6470;47.654;7.896;2023-03-03T11:56:21;10.00;99.90
12811;DHT22;6470;47.654;7.896;2023-03-03T11:58:53;9.90;99.90
12811;DHT22;6470;47.654;7.896;2023-03-03T12:01:27;10.00;99.90
12811;DHT22;6470;47.654;7.896;2023-03-03T12:04:08;10.50;99.90
12811;DHT22;6470;47.654;7.896;2023-03-03T12:07:07;10.10;99.90
12811;DHT22;6470;47.654;7.896;2023-03-03T12:12:34;12.50;99.90
12811;DHT22;6470;47.654;7.896;2023-03-03T12:18:05;12.20;99.90
12811;DHT22;6470;47.654;7.896;2023-03-03T12:28:37;9.90;99.90
12811;DHT22;6470;47.654;7.896;2023-03-03T12:33:41;10.70;99.90
12811;DHT22;6470;47.654;7.896;2023-03-03T12:36:35;10.40;99.90
12811;DHT22;6470;47.654;7.896;2023-03-03T12:47:50;11.20;99.90
12811;DHT22;6470;47.654;7.896;2023-03-03T12:50:41;11.00;99.90
12811;DHT22;6470;47.654;7.896;2023-03-03T12:56:12;9.90;99.90
12811;DHT22;6470;47.654;7.896;2023-03-03T13:04:04;11.80;99.90
12811;DHT22;6470;47.654;7.896;2023-03-03T13:06:52;11.30;99.90
12811;DHT22;6470;47.654;7.896;2023-03-03T13:15:20;11.80;99.90
12811;DHT22;6470;47.654;7.896;2023-03-03T13:18:45;11.90;99.90
12811;DHT22;6470;47.654;7.896;2023-03-03T13:21:04;12.00;99.90
12811;DHT22;6470;47.654;7.896;2023-03-03T13:26:35;11.70;99.90
12811;DHT22;6470;47.654;7.896;2023-03-03T13:29:03;12.50;99.90
12811;DHT22;6470;47.654;7.896;2023-03-03T13:31:38;11.50;99.90
12811;DHT22;6470;47.654;7.896;2023-03-03T13:34:07;12.10;99.90
12811;DHT22;6470;47.654;7.896;2023-03-03T13:36:48;14.40;99.90
12811;DHT22;6470;47.654;7.896;2023-03-03T13:39:23;10.20;99.90
12811;DHT22;6470;47.654;7.896;2023-03-03T13:44:41;14.90;99.90
12811;DHT22;6470;47.654;7.896;2023-03-03T13:47:30;11.70;99.90
12811;DHT22;6470;47.654;7.896;2023-03-03T13:52:27;11.60;99.90
12811;DHT22;6470;47.654;7.896;2023-03-03T13:55:28;11.50;99.90
12811;DHT22;6470;47.654;7.896;2023-03-03T13:58:11;12.30;99.90
12811;DHT22;6470;47.654;7.896;2023-03-03T14:00:54;12.20;99.90
12811;DHT22;6470;47.654;7.896;2023-03-03T14:17:02;10.00;99.90
12811;DHT22;6470;47.654;7.896;2023-03-03T14:19:51;12.30;99.90
12811;DHT22;6470;47.654;7.896;2023-03-03T14:22:26;10.80;99.90
12811;DHT22;6470;47.654;7.896;2023-03-03T14:25:05;10.40;99.90
12811;DHT22;6470;47.654;7.896;2023-03-03T14:27:39;10.80;99.90
12811;DHT22;6470;47.654;7.896;2023-03-03T14:35:59;11.60;99.90
12811;DHT22;6470;47.654;7.896;2023-03-03T14:41:38;10.50;99.90
12811;DHT22;6470;47.654;7.896;2023-03-03T14:44:24;9.90;99.90
12811;DHT22;6470;47.654;7.896;2023-03-03T14:49:38;12.10;99.90
12811;DHT22;6470;47.654;7.896;2023-03-03T14:52:26;11.70;99.90
12811;DHT22;6470;47.654;7.896;2023-03-03T14:54:57;12.30;99.90
12811;DHT22;6470;47.654;7.896;2023-03-03T14:57:41;11.70;99.90
12811;DHT22;6470;47.654;7.896;2023-03-03T15:02:56;11.50;99.90
12811;DHT22;6470;47.654;7.896;2023-03-03T15:05:28;11.80;99.90
12811;DHT22;6470;47.654;7.896;2023-03-03T15:10:35;11.80;99.90
12811;DHT22;6470;47.654;7.896;2023-03-03T15:13:34;10.00;99.90
12811;DHT22;6470;47.654;7.896;2023-03-03T15:16:09;10.40;99.90
12811;DHT22;6470;47.654;7.896;2023-03-03T15:19:05;10.20;99.90
12811;DHT22;6470;47.654;7.896;2023-03-03T15:21:41;10.10;99.90
12811;DHT22;6470;47.654;7.896;2023-03-03T15:26:59;10.10;99.90
12811;DHT22;6470;47.654;7.896;2023-03-03T15:29:40;9.90;99.90
12811;DHT22;6470;47.654;7.896;2023-03-03T15:35:30;9.80;99.90
12811;DHT22;6470;47.654;7.896;2023-03-03T15:38:06;10.00;99.90
12811;DHT22;6470;47.654;7.896;2023-03-03T15:56:36;8.50;99.90
12811;DHT22;6470;47.654;7.896;2023-03-03T16:04:55;8.50;99.90
12811;DHT22;6470;47.654;7.896;2023-03-03T16:12:51;7.90;99.90
12811;DHT22;6470;47.654;7.896;2023-03-03T16:28:51;8.60;99.90
12811;DHT22;6470;47.654;7.896;2023-03-03T16:32:08;8.70;99.90
12811;DHT22;6470;47.654;7.896;2023-03-03T16:34:23;8.90;99.90
12811;DHT22;6470;47.654;7.896;2023-03-03T16:39:50;8.50;99.90
12811;DHT22;6470;47.654;7.896;2023-03-03T16:42:40;8.20;99.90
12811;DHT22;6470;47.654;7.896;2023-03-03T16:45:16;8.60;99.90
12811;DHT22;6470;47.654;7.896;2023-03-03T16:48:01;8.10;99.90
12811;DHT22;6470;47.654;7.896;2023-03-03T16:56:45;7.90;99.90
12811;DHT22;6470;47.654;7.896;2023-03-03T17:05:15;6.80;99.90
12811;DHT22;6470;47.654;7.896;2023-03-03T17:15:41;6.60;99.90
12811;DHT22;6470;47.654;7.896;2023-03-03T17:20:54;7.50;99.90
12811;DHT22;6470;47.654;7.896;2023-03-03T17:26:29;7.80;99.90
12811;DHT22;6470;47.654;7.896;2023-03-03T17:40:36;7.30;99.90
12811;DHT22;6470;47.654;7.896;2023-03-03T17:43:15;7.30;99.90
12811;DHT22;6470;47.654;7.896;2023-03-03T17:45:45;7.70;99.90
12811;DHT22;6470;47.654;7.896;2023-03-03T17:50:53;7.20;99.90
12811;DHT22;6470;47.654;7.896;2023-03-03T18:05:36;6.50;99.90
12811;DHT22;6470;47.654;7.896;2023-03-03T18:08:30;6.90;99.90
12811;DHT22;6470;47.654;7.896;2023-03-03T18:13:48;6.60;99.90
12811;DHT22;6470;47.654;7.896;2023-03-03T18:22:08;6.80;99.90
12811;DHT22;6470;47.654;7.896;2023-03-03T18:24:53;7.10;99.90
12811;DHT22;6470;47.654;7.896;2023-03-03T18:32:41;6.70;99.90
12811;DHT22;6470;47.654;7.896;2023-03-03T18:35:33;6.60;99.90
12811;DHT22;6470;47.654;7.896;2023-03-03T18:41:09;6.20;99.90
12811;DHT22;6470;47.654;7.896;2023-03-03T18:48:50;6.70;99.90
12811;DHT22;6470;47.654;7.896;2023-03-03T18:59:39;5.20;99.90
12811;DHT22;6470;47.654;7.896;2023-03-03T19:04:41;2.60;99.90
12811;DHT22;6470;47.654;7.896;2023-03-03T19:07:20;5.40;99.90
12811;DHT22;6470;47.654;7.896;2023-03-03T19:10:03;4.70;99.90
12811;DHT22;6470;47.654;7.896;2023-03-03T19:18:04;5.20;99.90
12811;DHT22;6470;47.654;7.896;2023-03-03T19:20:53;4.60;99.90
12811;DHT22;6470;47.654;7.896;2023-03-03T19:31:56;4.60;99.90
12811;DHT22;6470;47.654;7.896;2023-03-03T19:34:53;4.30;99.90
12811;DHT22;6470;47.654;7.896;2023-03-03T19:37:50;4.40;99.90
12811;DHT22;6470;47.654;7.896;2023-03-03T19:40:30;3.60;99.90
12811;DHT22;6470;47.654;7.896;2023-03-03T19:45:51;4.00;99.90
12811;DHT22;6470;47.654;7.896;2023-03-03T19:48:45;4.50;99.90
12811;DHT22;6470;47.654;7.896;2023-03-03T19:56:36;4.30;99.90
12811;DHT22;6470;47.654;7.896;2023-03-03T20:10:26;3.90;99.90
12811;DHT22;6470;47.654;7.896;2023-03-03T20:27:08;3.10;99.90
12811;DHT22;6470;47.654;7.896;2023-03-03T20:35:46;3.50;99.90
12811;DHT22;6470;47.654;7.896;2023-03-03T20:43:38;3.50;99.90
12811;DHT22;6470;47.654;7.896;2023-03-03T20:46:33;3.30;99.90
12811;DHT22;6470;47.654;7.896;2023-03-03T20:52:10;3.20;99.90
12811;DHT22;6470;47.654;7.896;2023-03-03T21:03:05;3.00;99.90
12811;DHT22;6470;47.654;7.896;2023-03-03T21:05:34;3.20;99.90
12811;DHT22;6470;47.654;7.896;2023-03-03T21:08:04;2.80;99.90
12811;DHT22;6470;47.654;7.896;2023-03-03T21:10:34;2.90;99.90
12811;DHT22;6470;47.654;7.896;2023-03-03T21:13:36;2.40;99.90
12811;DHT22;6470;47.654;7.896;2023-03-03T21:21:21;3.10;99.90
12811;DHT22;6470;47.654;7.896;2023-03-03T21:23:46;2.70;99.90
12811;DHT22;6470;47.654;7.896;2023-03-03T21:26:12;2.00;99.90
12811;DHT22;6470;47.654;7.896;2023-03-03T21:33:56;2.90;99.90
12811;DHT22;6470;47.654;7.896;2023-03-03T21:38:57;-0.60;99.90
12811;DHT22;6470;47.654;7.896;2023-03-03T21:41:23;1.90;99.90
12811;DHT22;6470;47.654;7.896;2023-03-03T21:43:51;-1.00;99.90
12811;DHT22;6470;47.654;7.896;2023-03-03T21:49:41;2.90;99.90
12811;DHT22;6470;47.654;7.896;2023-03-03T21:52:07;2.50;99.90
12811;DHT22;6470;47.654;7.896;2023-03-03T21:54:33;1.50;99.90
12811;DHT22;6470;47.654;7.896;2023-03-03T21:56:59;1.90;99.90
12811;DHT22;6470;47.654;7.896;2023-03-03T21:59:25;1.50;99.90
12811;DHT22;6470;47.654;7.896;2023-03-03T22:04:16;2.60;99.90
12811;DHT22;6470;47.654;7.896;2023-03-03T22:06:42;2.70;99.90
12811;DHT22;6470;47.654;7.896;2023-03-03T22:09:08;2.00;99.90
12811;DHT22;6470;47.654;7.896;2023-03-03T22:11:34;2.80;99.90
12811;DHT22;6470;47.654;7.896;2023-03-03T22:14:00;1.90;99.90
12811;DHT22;6470;47.654;7.896;2023-03-03T22:16:26;2.20;99.90
12811;DHT22;6470;47.654;7.896;2023-03-03T22:18:51;2.10;99.90
12811;DHT22;6470;47.654;7.896;2023-03-03T22:23:43;2.30;99.90
12811;DHT22;6470;47.654;7.896;2023-03-03T22:26:09;1.80;99.90
12811;DHT22;6470;47.654;7.896;2023-03-03T22:28:34;2.10;99.90
12811;DHT22;6470;47.654;7.896;2023-03-03T22:31:00;-1.40;99.90
12811;DHT22;6470;47.654;7.896;2023-03-03T22:33:26;2.40;99.90
12811;DHT22;6470;47.654;7.896;2023-03-03T22:35:51;2.50;99.90
12811;DHT22;6470;47.654;7.896;2023-03-03T22:38:17;2.30;99.90
12811;DHT22;6470;47.654;7.896;2023-03-03T22:40:43;2.40;99.90
12811;DHT22;6470;47.654;7.896;2023-03-03T22:43:09;2.20;99.90
12811;DHT22;6470;47.654;7.896;2023-03-03T22:45:36;1.00;99.90
12811;DHT22;6470;47.654;7.896;2023-03-03T22:48:02;1.70;99.90
12811;DHT22;6470;47.654;7.896;2023-03-03T22:50:28;2.60;99.90
12811;DHT22;6470;47.654;7.896;2023-03-03T22:52:54;2.00;99.90
12811;DHT22;6470;47.654;7.896;2023-03-03T22:55:20;1.70;99.90
12811;DHT22;6470;47.654;7.896;2023-03-03T22:57:46;1.70;99.90
12811;DHT22;6470;47.654;7.896;2023-03-03T23:00:12;-1.50;99.90
12811;DHT22;6470;47.654;7.896;2023-03-03T23:02:39;2.90;99.90
12811;DHT22;6470;47.654;7.896;2023-03-03T23:05:05;2.60;99.90
12811;DHT22;6470;47.654;7.896;2023-03-03T23:07:36;2.00;99.90
12811;DHT22;6470;47.654;7.896;2023-03-03T23:10:03;-1.40;99.90
12811;DHT22;6470;47.654;7.896;2023-03-03T23:12:29;-1.30;99.90
12811;DHT22;6470;47.654;7.896;2023-03-03T23:17:21;1.90;99.90
12811;DHT22;6470;47.654;7.896;2023-03-03T23:19:47;0.60;99.90
12811;DHT22;6470;47.654;7.896;2023-03-03T23:22:14;1.80;99.90
12811;DHT22;6470;47.654;7.896;2023-03-03T23:24:40;2.60;99.90
12811;DHT22;6470;47.654;7.896;2023-03-03T23:27:07;2.30;99.90
12811;DHT22;6470;47.654;7.896;2023-03-03T23:29:33;-1.00;99.90
12811;DHT22;6470;47.654;7.896;2023-03-03T23:34:25;2.50;99.90
12811;DHT22;6470;47.654;7.896;2023-03-03T23:40:14;1.10;99.90
12811;DHT22;6470;47.654;7.896;2023-03-03T23:42:40;2.80;99.90
12811;DHT22;6470;47.654;7.896;2023-03-03T23:45:07;2.10;99.90
12811;DHT22;6470;47.654;7.896;2023-03-03T23:47:33;2.40;99.90
12811;DHT22;6470;47.654;7.896;2023-03-03T23:49:58;2.20;99.90
12811;DHT22;6470;47.654;7.896;2023-03-03T23:52:24;2.30;99.90
12811;DHT22;6470;47.654;7.896;2023-03-03T23:54:50;2.50;99.90
12811;DHT22;6470;47.654;7.896;2023-03-03T23:57:17;2.40;99.90
12811;DHT22;6470;47.654;7.896;2023-03-03T23:59:43;2.60;99.90
